createdAt,value
2022-08-09T00:01:00.014Z,2.40
2022-08-09T00:04:08.569Z,2.05
2022-08-09T00:06:23.278Z,2.50
2022-08-09T00:08:51.843Z,2.55
2022-08-09T00:11:24.572Z,3.03
2022-08-09T00:13:55.683Z,2.63
2022-08-09T00:19:09.225Z,2.17
2022-08-09T00:21:38.462Z,2.40
2022-08-09T00:24:24.305Z,2.20
2022-08-09T00:26:52.925Z,2.45
2022-08-09T00:29:39.418Z,2.70
2022-08-09T00:32:12.731Z,2.70
2022-08-09T00:34:40.801Z,3.08
2022-08-09T00:37:20.389Z,3.10
2022-08-09T00:40:12.532Z,2.88
2022-08-09T00:44:13.563Z,2.92
2022-08-09T00:45:26.702Z,3.13
2022-08-09T00:47:55.645Z,2.80
2022-08-09T00:50:24.318Z,3.53
2022-08-09T00:52:53.838Z,3.25
2022-08-09T00:56:03.658Z,3.20
2022-08-09T00:58:14.728Z,3.20
2022-08-09T01:00:54.685Z,2.55
2022-08-09T01:03:33.535Z,3.10
2022-08-09T01:06:13.902Z,3.45
2022-08-09T01:08:55.910Z,2.92
2022-08-09T01:11:38.086Z,3.30
2022-08-09T01:14:14.951Z,2.70
2022-08-09T01:16:49.406Z,3.22
2022-08-09T01:19:40.293Z,4.22
2022-08-09T01:22:37.884Z,4.20
2022-08-09T01:25:22.592Z,3.55
2022-08-09T01:27:57.871Z,4.00
2022-08-09T01:30:51.299Z,3.30
2022-08-09T01:33:20.346Z,3.40
2022-08-09T01:35:54.461Z,3.42
2022-08-09T01:38:27.279Z,3.10
2022-08-09T01:41:04.984Z,3.15
2022-08-09T01:43:41.826Z,3.38
2022-08-09T01:46:24.687Z,3.25
2022-08-09T01:48:59.883Z,3.67
2022-08-09T01:51:32.617Z,4.32
2022-08-09T01:54:04.140Z,3.70
2022-08-09T01:56:36.405Z,4.05
2022-08-09T01:59:10.675Z,3.72
2022-08-09T02:01:58.176Z,3.92
2022-08-09T02:04:30.785Z,4.00
2022-08-09T02:08:34.758Z,3.92
2022-08-09T02:10:07.616Z,3.72
2022-08-09T02:12:37.359Z,4.10
2022-08-09T02:15:16.824Z,4.60
2022-08-09T02:18:09.267Z,3.90
2022-08-09T02:20:41.823Z,3.95
2022-08-09T02:23:19.163Z,4.43
2022-08-09T02:25:55.578Z,4.30
2022-08-09T02:28:31.362Z,4.57
2022-08-09T02:31:05.947Z,3.95
2022-08-09T02:34:06.692Z,4.40
2022-08-09T02:36:33.161Z,4.10
2022-08-09T02:39:05.303Z,4.30
2022-08-09T02:41:39.819Z,4.30
2022-08-09T02:44:19.889Z,4.15
2022-08-09T02:47:04.485Z,4.45
2022-08-09T02:49:40.958Z,5.05
2022-08-09T02:52:14.769Z,4.20
2022-08-09T02:54:51.261Z,4.30
2022-08-09T03:00:11.489Z,4.10
2022-08-09T03:02:58.248Z,3.78
2022-08-09T03:05:29.180Z,4.70
2022-08-09T03:07:57.934Z,4.13
2022-08-09T03:10:27.617Z,4.03
2022-08-09T03:12:56.413Z,4.85
2022-08-09T03:16:04.126Z,4.28
2022-08-09T03:18:16.128Z,3.85
2022-08-09T03:21:01.225Z,4.18
2022-08-09T03:23:29.902Z,3.95
2022-08-09T03:26:04.824Z,4.18
2022-08-09T03:28:34.981Z,4.63
2022-08-09T03:31:09.895Z,4.28
2022-08-09T03:33:54.532Z,4.45
2022-08-09T03:36:27.405Z,4.55
2022-08-09T03:38:57.445Z,4.90
2022-08-09T03:41:29.897Z,4.63
2022-08-09T03:44:12.904Z,4.35
2022-08-09T03:46:44.015Z,4.00
2022-08-09T03:49:17.493Z,4.50
2022-08-09T03:51:58.507Z,4.43
2022-08-09T03:54:32.362Z,4.30
2022-08-09T03:57:04.293Z,4.40
2022-08-09T03:59:53.241Z,4.15
2022-08-09T04:02:26.666Z,4.13
2022-08-09T04:05:06.479Z,4.43
2022-08-09T04:07:52.319Z,3.83
2022-08-09T04:10:28.701Z,4.38
2022-08-09T04:13:04.455Z,4.38
2022-08-09T04:16:18.177Z,4.93
2022-08-09T04:18:21.997Z,6.15
2022-08-09T04:20:52.092Z,6.40
2022-08-09T04:23:25.081Z,5.82
2022-08-09T04:25:55.393Z,5.32
2022-08-09T04:28:34.240Z,5.55
2022-08-09T04:31:09.011Z,4.80
2022-08-09T04:33:51.485Z,4.95
2022-08-09T04:36:25.651Z,4.50
2022-08-09T04:38:54.387Z,4.72
2022-08-09T04:41:23.836Z,4.40
2022-08-09T04:44:05.168Z,4.35
2022-08-09T04:46:57.179Z,4.80
2022-08-09T04:49:52.281Z,4.10
2022-08-09T04:52:12.131Z,4.03
2022-08-09T04:54:52.211Z,3.88
2022-08-09T04:57:23.749Z,4.13
2022-08-09T04:59:52.675Z,3.67
2022-08-09T05:02:21.096Z,4.30
2022-08-09T05:04:49.895Z,4.45
2022-08-09T05:07:29.307Z,8.93
2022-08-09T05:10:01.993Z,6.20
2022-08-09T05:15:03.304Z,4.50
2022-08-09T05:18:38.429Z,5.35
2022-08-09T05:20:21.220Z,4.88
2022-08-09T05:23:53.844Z,6.00
2022-08-09T05:25:50.612Z,5.75
2022-08-09T05:28:19.841Z,5.65
2022-08-09T05:30:48.644Z,6.43
2022-08-09T05:33:19.695Z,6.45
2022-08-09T05:35:54.525Z,5.85
2022-08-09T05:38:26.538Z,6.05
2022-08-09T05:40:56.243Z,5.65
2022-08-09T05:43:24.671Z,6.03
2022-08-09T05:45:59.681Z,5.93
2022-08-09T05:48:32.891Z,5.45
2022-08-09T05:51:41.536Z,6.18
2022-08-09T05:53:57.217Z,5.47
2022-08-09T05:56:27.888Z,5.15
2022-08-09T05:58:58.626Z,5.60
2022-08-09T06:01:33.615Z,4.40
2022-08-09T06:04:05.846Z,4.95
2022-08-09T06:06:35.260Z,4.20
2022-08-09T06:09:10.054Z,4.40
2022-08-09T06:11:57.666Z,5.13
2022-08-09T06:14:26.462Z,4.72
2022-08-09T06:16:57.358Z,4.53
2022-08-09T06:19:25.439Z,5.00
2022-08-09T06:24:29.086Z,4.85
2022-08-09T06:26:57.559Z,5.20
2022-08-09T06:29:27.014Z,5.80
2022-08-09T06:32:08.434Z,5.25
2022-08-09T06:34:43.928Z,4.95
2022-08-09T06:37:11.898Z,4.40
2022-08-09T06:39:57.682Z,4.30
2022-08-09T06:42:30.908Z,4.55
2022-08-09T06:45:09.244Z,5.25
2022-08-09T06:48:00.829Z,4.18
2022-08-09T06:50:31.062Z,4.38
2022-08-09T06:53:01.082Z,3.97
2022-08-09T06:55:33.047Z,4.10
2022-08-09T06:58:04.354Z,3.60
2022-08-09T07:00:57.405Z,3.70
2022-08-09T07:03:27.996Z,3.85
2022-08-09T07:06:02.794Z,3.53
2022-08-09T07:08:32.363Z,4.10
2022-08-09T07:11:03.457Z,3.97
2022-08-09T07:14:00.273Z,4.13
2022-08-09T07:16:42.209Z,3.83
2022-08-09T07:19:10.718Z,3.20
2022-08-09T07:21:55.207Z,3.58
2022-08-09T07:24:32.155Z,3.20
2022-08-09T07:27:27.251Z,3.35
2022-08-09T07:30:00.534Z,3.25
2022-08-09T07:32:32.318Z,3.20
2022-08-09T07:35:10.627Z,3.00
2022-08-09T07:37:43.428Z,3.60
2022-08-09T07:40:17.157Z,3.42
2022-08-09T07:43:07.140Z,4.32
2022-08-09T07:45:45.316Z,3.28
2022-08-09T07:48:25.742Z,3.47
2022-08-09T07:51:09.105Z,3.88
2022-08-09T07:54:05.119Z,3.13
2022-08-09T07:56:45.193Z,3.53
2022-08-09T07:59:33.894Z,4.00
2022-08-09T08:02:09.400Z,3.70
2022-08-09T08:04:38.966Z,4.15
2022-08-09T08:07:09.280Z,3.90
2022-08-09T08:09:51.714Z,3.90
2022-08-09T08:12:27.705Z,4.15
2022-08-09T08:14:59.469Z,3.50
2022-08-09T08:17:52.334Z,3.38
2022-08-09T08:20:16.255Z,4.07
2022-08-09T08:22:48.446Z,3.50
2022-08-09T08:25:16.879Z,3.85
2022-08-09T08:27:49.821Z,3.80
2022-08-09T08:30:19.560Z,4.10
2022-08-09T08:32:52.896Z,3.97
2022-08-09T08:35:22.941Z,4.32
2022-08-09T08:38:02.177Z,4.35
2022-08-09T08:40:37.678Z,4.25
2022-08-09T08:43:13.335Z,4.05
2022-08-09T08:45:53.194Z,4.20
2022-08-09T08:48:23.665Z,4.85
2022-08-09T08:50:58.733Z,3.92
2022-08-09T08:53:32.197Z,4.00
2022-08-09T08:56:06.663Z,4.22
2022-08-09T08:58:37.208Z,4.00
2022-08-09T09:01:09.131Z,4.07
2022-08-09T09:03:50.780Z,4.22
2022-08-09T09:06:21.072Z,4.10
2022-08-09T09:08:52.721Z,4.32
2022-08-09T09:11:29.891Z,4.32
2022-08-09T09:14:04.724Z,4.32
2022-08-09T09:16:35.526Z,3.88
2022-08-09T09:22:04.153Z,3.88
2022-08-09T09:24:35.232Z,4.15
2022-08-09T09:27:07.500Z,4.13
2022-08-09T09:30:08.521Z,4.03
2022-08-09T09:35:09.044Z,4.03
2022-08-09T09:37:40.472Z,3.90
2022-08-09T09:40:11.881Z,4.50
2022-08-09T09:42:43.085Z,4.35
2022-08-09T09:45:25.799Z,4.13
2022-08-09T09:47:58.824Z,4.45
2022-08-09T09:50:49.230Z,3.75
2022-08-09T09:53:20.172Z,4.18
2022-08-09T09:56:04.553Z,4.38
2022-08-09T09:58:46.712Z,4.38
2022-08-09T10:01:31.229Z,4.32
2022-08-09T10:04:16.156Z,4.30
2022-08-09T10:06:51.867Z,4.13
2022-08-09T10:09:24.009Z,4.03
2022-08-09T10:14:48.461Z,4.57
2022-08-09T10:17:50.787Z,4.10
2022-08-09T10:20:27.770Z,4.68
2022-08-09T10:23:17.336Z,4.32
2022-08-09T10:26:08.093Z,4.30
2022-08-09T10:28:37.578Z,3.95
2022-08-09T10:34:10.545Z,4.28
2022-08-09T10:36:50.150Z,4.00
2022-08-09T10:39:19.845Z,4.28
2022-08-09T10:41:48.424Z,4.40
2022-08-09T10:44:22.218Z,4.10
2022-08-09T10:48:13.494Z,4.55
2022-08-09T10:50:14.832Z,4.28
2022-08-09T10:53:02.336Z,3.97
2022-08-09T10:55:35.647Z,4.00
2022-08-09T10:58:33.578Z,4.55
2022-08-09T11:03:02.630Z,3.92
2022-08-09T11:04:30.085Z,3.70
2022-08-09T11:07:26.655Z,3.92
2022-08-09T11:09:59.688Z,4.40
2022-08-09T11:12:29.782Z,3.97
2022-08-09T11:15:01.536Z,3.75
2022-08-09T11:17:53.731Z,4.45
2022-08-09T11:20:47.589Z,4.05
2022-08-09T11:23:23.734Z,4.55
2022-08-09T11:25:54.831Z,3.95
2022-08-09T11:28:56.477Z,3.90
2022-08-09T11:31:49.803Z,3.70
2022-08-09T11:34:31.026Z,4.07
2022-08-09T11:37:01.508Z,4.60
2022-08-09T11:39:38.016Z,4.10
2022-08-09T11:42:14.657Z,4.47
2022-08-09T11:44:48.344Z,4.65
2022-08-09T11:47:16.776Z,4.20
2022-08-09T11:50:56.446Z,3.80
2022-08-09T11:53:55.197Z,3.60
2022-08-09T11:56:42.730Z,4.28
2022-08-09T11:59:29.829Z,3.40
2022-08-09T12:02:34.564Z,3.67
2022-08-09T12:04:58.207Z,4.63
2022-08-09T12:07:34.418Z,3.97
2022-08-09T12:10:14.305Z,3.88
2022-08-09T12:13:00.369Z,4.38
2022-08-09T12:15:50.204Z,3.90
2022-08-09T12:18:26.172Z,4.00
2022-08-09T12:21:00.712Z,3.45
2022-08-09T12:23:56.486Z,3.58
2022-08-09T12:26:26.038Z,3.83
2022-08-09T12:29:13.971Z,3.60
2022-08-09T12:32:01.691Z,3.63
2022-08-09T12:34:34.788Z,3.83
2022-08-09T12:37:09.785Z,3.85
2022-08-09T12:40:02.083Z,4.20
2022-08-09T12:42:30.974Z,3.70
2022-08-09T12:45:00.246Z,3.92
2022-08-09T12:47:37.259Z,4.00
2022-08-09T12:50:19.970Z,3.55
2022-08-09T12:53:09.480Z,3.85
2022-08-09T12:56:15.072Z,3.85
2022-08-09T12:58:28.864Z,3.72
2022-08-09T13:00:58.060Z,3.95
2022-08-09T13:03:53.142Z,4.00
2022-08-09T13:06:35.006Z,3.38
2022-08-09T13:09:09.385Z,3.85
2022-08-09T13:11:42.463Z,3.75
2022-08-09T13:14:42.412Z,4.45
2022-08-09T13:17:04.962Z,3.95
2022-08-09T13:20:08.483Z,3.88
2022-08-09T13:22:35.317Z,3.63
2022-08-09T13:25:14.344Z,3.88
2022-08-09T13:27:48.586Z,4.07
2022-08-09T13:30:50.669Z,3.92
2022-08-09T13:33:22.483Z,3.72
2022-08-09T13:36:38.496Z,3.58
2022-08-09T13:38:56.545Z,3.20
2022-08-09T13:41:55.054Z,3.50
2022-08-09T13:44:16.964Z,3.50
2022-08-09T13:47:29.588Z,3.70
2022-08-09T13:49:37.870Z,3.15
2022-08-09T13:52:09.676Z,3.17
2022-08-09T13:54:42.924Z,3.88
2022-08-09T13:57:36.846Z,3.35
2022-08-09T14:00:12.085Z,3.42
2022-08-09T14:03:02.721Z,3.38
2022-08-09T14:05:56.837Z,3.60
2022-08-09T14:08:20.702Z,4.10
2022-08-09T14:10:52.124Z,3.90
2022-08-09T14:13:28.471Z,3.17
2022-08-09T14:16:14.446Z,3.60
2022-08-09T14:18:46.035Z,3.20
2022-08-09T14:21:20.244Z,3.25
2022-08-09T14:23:55.563Z,3.17
2022-08-09T14:26:31.635Z,3.20
2022-08-09T14:29:03.197Z,3.35
2022-08-09T14:31:36.218Z,4.90
2022-08-09T14:34:30.949Z,3.13
2022-08-09T14:37:06.627Z,3.45
2022-08-09T14:39:46.550Z,3.20
2022-08-09T14:42:32.095Z,3.20
2022-08-09T14:46:46.714Z,3.25
2022-08-09T14:47:58.898Z,3.33
2022-08-09T14:50:29.502Z,2.97
2022-08-09T14:52:59.150Z,3.00
2022-08-09T14:55:32.574Z,2.95
2022-08-09T14:58:02.845Z,2.88
2022-08-09T15:00:32.049Z,2.75
2022-08-09T15:05:29.518Z,3.10
2022-08-09T15:07:58.319Z,3.03
2022-08-09T15:10:28.291Z,3.08
2022-08-09T15:12:57.039Z,2.97
2022-08-09T15:15:28.527Z,3.30
2022-08-09T15:17:58.583Z,3.10
2022-08-09T15:24:03.041Z,3.30
2022-08-09T15:26:05.120Z,3.05
2022-08-09T15:28:37.145Z,2.83
2022-08-09T15:31:14.742Z,3.40
2022-08-09T15:34:17.334Z,3.20
2022-08-09T15:36:34.733Z,2.80
2022-08-09T15:39:02.643Z,3.33
2022-08-09T15:41:33.513Z,2.67
2022-08-09T15:44:01.803Z,3.17
2022-08-09T15:46:33.410Z,3.00
2022-08-09T15:49:20.662Z,2.80
2022-08-09T15:52:05.127Z,3.00
2022-08-09T15:54:46.148Z,2.97
2022-08-09T15:57:35.732Z,2.53
2022-08-09T16:00:14.141Z,2.90
2022-08-09T16:02:43.535Z,2.70
2022-08-09T16:05:23.823Z,2.77
2022-08-09T16:07:51.892Z,2.70
2022-08-09T16:10:54.660Z,2.80
2022-08-09T16:13:20.939Z,2.67
2022-08-09T16:16:09.917Z,3.63
2022-08-09T16:18:45.729Z,2.92
2022-08-09T16:21:16.994Z,2.10
2022-08-09T16:23:54.768Z,2.67
2022-08-09T16:26:33.891Z,2.72
2022-08-09T16:29:11.180Z,2.47
2022-08-09T16:32:19.453Z,2.45
2022-08-09T16:34:56.010Z,2.30
2022-08-09T16:37:21.554Z,2.55
2022-08-09T16:40:10.498Z,2.65
2022-08-09T16:42:45.251Z,2.65
2022-08-09T16:45:19.672Z,2.42
2022-08-09T16:48:39.217Z,2.30
2022-08-09T16:50:38.631Z,2.35
2022-08-09T16:53:08.996Z,2.38
2022-08-09T16:55:58.870Z,2.22
2022-08-09T16:58:25.587Z,2.50
2022-08-09T17:00:55.394Z,2.33
2022-08-09T17:03:23.757Z,2.00
2022-08-09T17:06:06.853Z,2.50
2022-08-09T17:08:47.003Z,2.80
2022-08-09T17:11:40.907Z,2.22
2022-08-09T17:14:25.405Z,2.60
2022-08-09T17:17:01.065Z,1.98
2022-08-09T17:20:05.959Z,2.10
2022-08-09T17:22:24.832Z,2.10
2022-08-09T17:25:10.221Z,2.40
2022-08-09T17:27:49.054Z,2.10
2022-08-09T17:30:22.567Z,2.38
2022-08-09T17:33:00.727Z,2.17
2022-08-09T17:35:35.016Z,2.20
2022-08-09T17:38:13.971Z,2.88
2022-08-09T17:40:52.703Z,3.50
2022-08-09T17:43:33.699Z,2.05
2022-08-09T17:46:07.063Z,2.20
2022-08-09T17:48:39.896Z,2.20
2022-08-09T17:51:18.437Z,2.22
2022-08-09T17:53:52.856Z,2.00
2022-08-09T17:56:26.779Z,2.20
2022-08-09T17:58:59.626Z,1.77
2022-08-09T18:01:58.146Z,2.75
2022-08-09T18:04:20.101Z,1.95
2022-08-09T18:06:54.180Z,2.13
2022-08-09T18:09:25.003Z,2.80
2022-08-09T18:12:15.261Z,2.00
2022-08-09T18:14:53.429Z,1.98
2022-08-09T18:18:00.993Z,1.92
2022-08-09T18:20:54.368Z,1.77
2022-08-09T18:23:05.845Z,1.92
2022-08-09T18:25:52.903Z,2.05
2022-08-09T18:30:38.428Z,2.17
2022-08-09T18:31:19.090Z,2.33
2022-08-09T18:33:53.648Z,2.17
2022-08-09T18:36:31.844Z,1.93
2022-08-09T18:39:02.299Z,2.03
2022-08-09T18:41:34.158Z,2.33
2022-08-09T18:44:12.515Z,2.05
2022-08-09T18:46:49.010Z,1.83
2022-08-09T18:49:32.127Z,2.67
2022-08-09T18:52:12.082Z,2.30
2022-08-09T18:54:49.625Z,2.38
2022-08-09T18:57:21.903Z,2.10
2022-08-09T18:59:55.561Z,2.15
2022-08-09T19:02:32.394Z,2.10
2022-08-09T19:05:15.261Z,2.38
2022-08-09T19:08:04.369Z,2.40
2022-08-09T19:10:39.980Z,2.50
2022-08-09T19:13:22.694Z,2.30
2022-08-09T19:15:52.854Z,2.20
2022-08-09T19:18:33.159Z,2.00
2022-08-09T19:21:05.217Z,1.92
2022-08-09T19:24:36.496Z,1.92
2022-08-09T19:26:31.040Z,2.13
2022-08-09T19:29:03.074Z,2.60
2022-08-09T19:31:45.532Z,2.30
2022-08-09T19:34:18.291Z,2.15
2022-08-09T19:36:52.254Z,2.20
2022-08-09T19:39:43.242Z,2.15
2022-08-09T19:42:14.899Z,2.50
2022-08-09T19:44:50.576Z,2.10
2022-08-09T19:47:23.730Z,2.22
2022-08-09T19:50:06.884Z,2.35
2022-08-09T19:52:49.681Z,2.17
2022-08-09T19:55:30.442Z,2.03
2022-08-09T19:58:16.000Z,2.50
2022-08-09T20:00:46.415Z,2.25
2022-08-09T20:04:10.523Z,2.10
2022-08-09T20:06:04.842Z,2.15
2022-08-09T20:08:51.058Z,2.33
2022-08-09T20:11:20.651Z,2.20
2022-08-09T20:13:54.705Z,1.90
2022-08-09T20:16:37.127Z,2.30
2022-08-09T20:19:48.387Z,2.30
2022-08-09T20:22:01.066Z,1.98
2022-08-09T20:24:33.564Z,2.75
2022-08-09T20:27:08.210Z,1.80
2022-08-09T20:29:38.563Z,1.63
2022-08-09T20:32:29.196Z,1.80
2022-08-09T20:34:56.099Z,1.90
2022-08-09T20:37:24.836Z,1.65
2022-08-09T20:40:17.509Z,1.70
2022-08-09T20:42:53.143Z,2.47
2022-08-09T20:45:59.757Z,2.22
2022-08-09T20:48:21.088Z,2.33
2022-08-09T20:50:55.647Z,2.17
2022-08-09T20:53:36.220Z,1.90
2022-08-09T20:56:09.594Z,1.65
2022-08-09T20:58:58.267Z,1.52
2022-08-09T21:01:35.096Z,1.80
2022-08-09T21:05:54.868Z,1.98
2022-08-09T21:07:11.039Z,1.75
2022-08-09T21:09:45.116Z,1.98
2022-08-09T21:15:13.843Z,2.25
2022-08-09T21:18:22.399Z,2.38
2022-08-09T21:20:31.103Z,1.80
2022-08-09T21:23:00.320Z,2.17
2022-08-09T21:25:55.630Z,1.80
2022-08-09T21:28:34.529Z,2.08
2022-08-09T21:31:16.853Z,2.03
2022-08-09T21:33:51.710Z,1.60
2022-08-09T21:36:23.086Z,1.60
2022-08-09T21:38:58.049Z,1.67
2022-08-09T21:42:00.356Z,1.77
2022-08-09T21:44:33.799Z,1.85
2022-08-09T21:47:05.785Z,2.25
2022-08-09T21:49:40.351Z,2.10
2022-08-09T21:52:17.140Z,1.85
2022-08-09T21:54:51.014Z,2.08
2022-08-09T21:57:38.585Z,1.58
2022-08-09T22:00:26.016Z,1.77
2022-08-09T22:02:59.627Z,2.00
2022-08-09T22:05:35.392Z,1.80
2022-08-09T22:08:06.828Z,2.03
2022-08-09T22:11:49.108Z,1.85
2022-08-09T22:13:31.389Z,1.77
2022-08-09T22:16:04.273Z,1.52
2022-08-09T22:18:33.762Z,2.30
2022-08-09T22:21:01.796Z,1.88
2022-08-09T22:23:35.475Z,1.90
2022-08-09T22:26:12.295Z,2.25
2022-08-09T22:28:54.022Z,2.00
2022-08-09T22:31:22.572Z,2.13
2022-08-09T22:33:55.245Z,2.33
2022-08-09T22:36:23.920Z,2.10
2022-08-09T22:38:52.009Z,2.35
2022-08-09T22:41:20.460Z,2.08
2022-08-09T22:44:02.169Z,1.77
2022-08-09T22:48:12.377Z,2.25
2022-08-09T22:49:22.683Z,2.53
2022-08-09T22:51:57.214Z,2.60
2022-08-09T22:54:27.295Z,3.15
2022-08-09T22:56:58.677Z,2.85
2022-08-09T22:59:56.716Z,2.70
2022-08-09T23:02:20.024Z,2.67
2022-08-09T23:04:53.760Z,2.60
2022-08-09T23:08:23.174Z,2.40
2022-08-09T23:10:30.688Z,2.22
2022-08-09T23:12:58.748Z,1.90
2022-08-09T23:15:27.006Z,2.30
2022-08-09T23:17:55.106Z,1.73
2022-08-09T23:20:26.194Z,1.88
2022-08-09T23:22:54.259Z,1.80
2022-08-09T23:25:22.704Z,1.70
2022-08-09T23:28:09.321Z,3.08
2022-08-09T23:30:39.215Z,2.47
2022-08-09T23:33:07.261Z,3.13
2022-08-09T23:36:06.698Z,2.83
2022-08-09T23:38:24.809Z,2.42
2022-08-09T23:40:54.229Z,2.42
2022-08-09T23:43:22.629Z,2.40
2022-08-09T23:45:50.607Z,2.60
2022-08-09T23:48:19.732Z,2.30
2022-08-09T23:50:49.183Z,2.33
2022-08-09T23:53:17.464Z,2.47
2022-08-09T23:55:49.710Z,2.15
2022-08-09T23:58:29.588Z,2.58
